sensor_id;sensor_type;location;lat;lon;timestamp;pressure;altitude;pressure_sealevel;temperature;humidity
58761;BME280;44529;47.464;19.014;2023-06-14T00:01:32;99944.19;;;14.74;76.36
58761;BME280;44529;47.464;19.014;2023-06-14T00:04:36;99945.94;;;14.66;76.78
58761;BME280;44529;47.464;19.014;2023-06-14T00:07:41;99949.91;;;14.69;77.31
58761;BME280;44529;47.464;19.014;2023-06-14T00:10:50;99947.41;;;14.63;78.37
58761;BME280;44529;47.464;19.014;2023-06-14T00:13:53;99958.53;;;14.58;78.95
58761;BME280;44529;47.464;19.014;2023-06-14T00:16:55;99958.91;;;14.57;79.20
58761;BME280;44529;47.464;19.014;2023-06-14T00:20:02;99952.31;;;14.46;78.95
58761;BME280;44529;47.464;19.014;2023-06-14T00:23:07;99958.22;;;14.35;79.55
58761;BME280;44529;47.464;19.014;2023-06-14T00:26:09;99964.38;;;14.20;81.34
58761;BME280;44529;47.464;19.014;2023-06-14T00:29:13;99963.59;;;14.20;81.73
58761;BME280;44529;47.464;19.014;2023-06-14T00:32:15;99958.72;;;14.25;80.49
58761;BME280;44529;47.464;19.014;2023-06-14T00:35:18;99969.00;;;14.32;81.60
58761;BME280;44529;47.464;19.014;2023-06-14T00:38:20;99964.44;;;14.36;80.84
58761;BME280;44529;47.464;19.014;2023-06-14T00:41:23;99958.56;;;14.34;81.37
58761;BME280;44529;47.464;19.014;2023-06-14T00:44:25;99965.84;;;14.30;82.07
58761;BME280;44529;47.464;19.014;2023-06-14T00:47:28;99962.78;;;14.31;81.99
58761;BME280;44529;47.464;19.014;2023-06-14T00:50:30;99966.72;;;14.34;81.03
58761;BME280;44529;47.464;19.014;2023-06-14T00:53:35;99966.84;;;14.38;81.21
58761;BME280;44529;47.464;19.014;2023-06-14T00:56:39;99967.75;;;14.29;82.88
58761;BME280;44529;47.464;19.014;2023-06-14T00:59:47;99966.62;;;14.30;82.98
58761;BME280;44529;47.464;19.014;2023-06-14T01:02:50;99965.84;;;14.30;82.07
58761;BME280;44529;47.464;19.014;2023-06-14T01:06:01;99967.88;;;14.33;82.67
58761;BME280;44529;47.464;19.014;2023-06-14T01:16:13;99970.72;;;14.24;83.51
58761;BME280;44529;47.464;19.014;2023-06-14T01:19:16;99968.31;;;14.23;83.52
58761;BME280;44529;47.464;19.014;2023-06-14T01:22:19;99956.78;;;14.14;85.59
58761;BME280;44529;47.464;19.014;2023-06-14T01:25:23;99960.75;;;14.16;85.20
58761;BME280;44529;47.464;19.014;2023-06-14T01:28:26;99957.81;;;14.09;85.33
58761;BME280;44529;47.464;19.014;2023-06-14T01:31:34;99959.88;;;14.00;87.19
58761;BME280;44529;47.464;19.014;2023-06-14T01:34:43;99968.38;;;13.98;86.98
58761;BME280;44529;47.464;19.014;2023-06-14T01:37:48;99960.53;;;13.97;87.23
58761;BME280;44529;47.464;19.014;2023-06-14T01:40:51;99965.31;;;13.88;87.86
58761;BME280;44529;47.464;19.014;2023-06-14T01:43:55;99961.81;;;13.87;88.81
58761;BME280;44529;47.464;19.014;2023-06-14T01:46:58;99963.03;;;13.90;87.86
58761;BME280;44529;47.464;19.014;2023-06-14T01:50:04;99969.75;;;13.92;87.76
58761;BME280;44529;47.464;19.014;2023-06-14T01:53:07;99965.09;;;13.80;88.74
58761;BME280;44529;47.464;19.014;2023-06-14T01:56:11;99964.88;;;13.73;89.45
58761;BME280;44529;47.464;19.014;2023-06-14T01:59:14;99966.00;;;13.72;89.58
58761;BME280;44529;47.464;19.014;2023-06-14T02:02:17;99971.75;;;13.71;89.56
58761;BME280;44529;47.464;19.014;2023-06-14T02:05:21;99976.16;;;13.63;89.60
58761;BME280;44529;47.464;19.014;2023-06-14T02:08:23;99982.06;;;13.53;91.14
58761;BME280;44529;47.464;19.014;2023-06-14T02:11:26;99983.63;;;13.54;91.58
58761;BME280;44529;47.464;19.014;2023-06-14T02:14:29;99983.97;;;13.52;91.70
58761;BME280;44529;47.464;19.014;2023-06-14T02:17:31;99990.88;;;13.50;91.70
58761;BME280;44529;47.464;19.014;2023-06-14T02:20:33;99984.84;;;13.44;92.55
58761;BME280;44529;47.464;19.014;2023-06-14T02:23:36;99985.19;;;13.43;92.44
58761;BME280;44529;47.464;19.014;2023-06-14T02:26:38;99985.19;;;13.43;92.85
58761;BME280;44529;47.464;19.014;2023-06-14T02:29:41;99982.69;;;13.38;93.27
58761;BME280;44529;47.464;19.014;2023-06-14T02:32:43;99975.00;;;13.27;94.59
58761;BME280;44529;47.464;19.014;2023-06-14T02:35:47;99978.59;;;13.32;93.73
58761;BME280;44529;47.464;19.014;2023-06-14T02:38:49;99982.91;;;13.33;93.96
58761;BME280;44529;47.464;19.014;2023-06-14T02:41:52;99982.78;;;13.29;94.00
58761;BME280;44529;47.464;19.014;2023-06-14T02:44:55;99975.19;;;13.22;94.30
58761;BME280;44529;47.464;19.014;2023-06-14T02:47:57;99984.75;;;13.20;95.59
58761;BME280;44529;47.464;19.014;2023-06-14T02:51:00;99974.06;;;13.23;95.27
58761;BME280;44529;47.464;19.014;2023-06-14T02:54:02;99979.94;;;13.25;95.17
58761;BME280;44529;47.464;19.014;2023-06-14T02:57:05;99979.31;;;13.20;96.28
58761;BME280;44529;47.464;19.014;2023-06-14T03:00:10;99972.47;;;13.22;95.47
58761;BME280;44529;47.464;19.014;2023-06-14T03:03:16;99987.66;;;13.23;95.28
58761;BME280;44529;47.464;19.014;2023-06-14T03:06:21;99976.34;;;13.21;95.22
58761;BME280;44529;47.464;19.014;2023-06-14T03:09:27;99978.25;;;13.21;95.59
58761;BME280;44529;47.464;19.014;2023-06-14T03:12:31;99978.28;;;13.12;97.25
58761;BME280;44529;47.464;19.014;2023-06-14T03:15:33;99979.22;;;13.16;97.06
58761;BME280;44529;47.464;19.014;2023-06-14T03:18:37;99975.66;;;13.24;96.50
58761;BME280;44529;47.464;19.014;2023-06-14T03:21:39;99979.94;;;13.25;96.68
58761;BME280;44529;47.464;19.014;2023-06-14T03:24:46;99979.94;;;13.25;96.58
58761;BME280;44529;47.464;19.014;2023-06-14T03:27:49;99978.16;;;13.30;96.08
58761;BME280;44529;47.464;19.014;2023-06-14T03:30:53;99982.66;;;13.25;97.67
58761;BME280;44529;47.464;19.014;2023-06-14T03:33:57;99983.00;;;13.24;97.13
58761;BME280;44529;47.464;19.014;2023-06-14T03:36:59;99986.06;;;13.22;97.03
58761;BME280;44529;47.464;19.014;2023-06-14T03:40:02;99986.16;;;13.26;96.85
58761;BME280;44529;47.464;19.014;2023-06-14T03:43:08;99985.16;;;13.31;96.82
58761;BME280;44529;47.464;19.014;2023-06-14T03:46:10;99999.63;;;13.22;98.07
58761;BME280;44529;47.464;19.014;2023-06-14T03:49:13;100000.53;;;13.26;97.87
58761;BME280;44529;47.464;19.014;2023-06-14T03:52:15;99997.97;;;13.30;97.23
58761;BME280;44529;47.464;19.014;2023-06-14T03:55:20;99992.66;;;13.34;97.19
58761;BME280;44529;47.464;19.014;2023-06-14T03:58:25;99991.03;;;13.33;96.88
58761;BME280;44529;47.464;19.014;2023-06-14T04:01:28;99988.34;;;13.33;97.29
58761;BME280;44529;47.464;19.014;2023-06-14T04:04:32;99998.53;;;13.36;97.02
58761;BME280;44529;47.464;19.014;2023-06-14T04:07:38;100001.59;;;13.34;97.61
58761;BME280;44529;47.464;19.014;2023-06-14T04:10:47;100000.91;;;13.37;97.29
58761;BME280;44529;47.464;19.014;2023-06-14T04:13:49;100009.25;;;13.32;98.06
58761;BME280;44529;47.464;19.014;2023-06-14T04:16:52;100008.81;;;13.30;98.62
58761;BME280;44529;47.464;19.014;2023-06-14T04:19:54;100010.66;;;13.38;98.08
58761;BME280;44529;47.464;19.014;2023-06-14T04:23:11;100009.97;;;13.41;98.23
58761;BME280;44529;47.464;19.014;2023-06-14T04:26:14;100009.44;;;13.48;98.33
58761;BME280;44529;47.464;19.014;2023-06-14T04:29:20;100018.62;;;13.55;97.79
58761;BME280;44529;47.464;19.014;2023-06-14T04:32:25;100023.69;;;13.57;98.36
58761;BME280;44529;47.464;19.014;2023-06-14T04:35:28;100020.78;;;13.62;97.50
58761;BME280;44529;47.464;19.014;2023-06-14T04:38:32;100015.00;;;13.64;97.09
58761;BME280;44529;47.464;19.014;2023-06-14T04:41:37;100020.22;;;13.69;97.10
58761;BME280;44529;47.464;19.014;2023-06-14T04:44:43;100018.53;;;13.76;96.89
58761;BME280;44529;47.464;19.014;2023-06-14T04:47:46;100022.28;;;13.72;96.57
58761;BME280;44529;47.464;19.014;2023-06-14T04:50:48;100025.44;;;13.74;96.12
58761;BME280;44529;47.464;19.014;2023-06-14T04:53:56;100027.16;;;13.78;97.08
58761;BME280;44529;47.464;19.014;2023-06-14T04:57:02;100026.31;;;13.78;96.34
58761;BME280;44529;47.464;19.014;2023-06-14T05:00:05;100031.09;;;13.81;96.54
58761;BME280;44529;47.464;19.014;2023-06-14T05:03:09;100023.87;;;13.85;96.14
58761;BME280;44529;47.464;19.014;2023-06-14T05:06:11;100032.25;;;13.92;96.88
58761;BME280;44529;47.464;19.014;2023-06-14T05:09:14;100037.00;;;13.95;95.85
58761;BME280;44529;47.464;19.014;2023-06-14T05:12:19;100035.19;;;13.99;96.32
58761;BME280;44529;47.464;19.014;2023-06-14T05:15:23;100030.78;;;14.07;95.72
58761;BME280;44529;47.464;19.014;2023-06-14T05:18:27;100028.72;;;14.16;95.49
58761;BME280;44529;47.464;19.014;2023-06-14T05:21:30;100029.88;;;14.15;97.07
58761;BME280;44529;47.464;19.014;2023-06-14T05:24:33;100031.56;;;14.20;95.68
58761;BME280;44529;47.464;19.014;2023-06-14T05:27:35;100031.91;;;14.30;94.95
58761;BME280;44529;47.464;19.014;2023-06-14T05:30:40;100036.09;;;14.40;94.25
58761;BME280;44529;47.464;19.014;2023-06-14T05:33:42;100035.66;;;14.50;95.32
58761;BME280;44529;47.464;19.014;2023-06-14T05:36:45;100037.09;;;14.60;93.85
58761;BME280;44529;47.464;19.014;2023-06-14T05:39:48;100038.09;;;14.68;93.76
58761;BME280;44529;47.464;19.014;2023-06-14T05:42:51;100036.41;;;14.75;91.17
58761;BME280;44529;47.464;19.014;2023-06-14T05:45:53;100035.69;;;14.78;90.92
58761;BME280;44529;47.464;19.014;2023-06-14T05:48:56;100041.16;;;14.78;91.30
58761;BME280;44529;47.464;19.014;2023-06-14T05:51:58;100036.50;;;14.79;92.24
58761;BME280;44529;47.464;19.014;2023-06-14T05:55:01;100044.50;;;14.87;91.48
58761;BME280;44529;47.464;19.014;2023-06-14T05:58:03;100042.94;;;14.86;92.19
58761;BME280;44529;47.464;19.014;2023-06-14T06:01:06;100045.66;;;14.86;92.67
58761;BME280;44529;47.464;19.014;2023-06-14T06:04:08;100044.37;;;14.96;91.79
58761;BME280;44529;47.464;19.014;2023-06-14T06:07:11;100044.00;;;15.10;88.10
58761;BME280;44529;47.464;19.014;2023-06-14T06:10:14;100040.56;;;15.13;88.25
58761;BME280;44529;47.464;19.014;2023-06-14T06:13:16;100044.97;;;15.17;89.30
58761;BME280;44529;47.464;19.014;2023-06-14T06:16:19;100043.59;;;15.24;88.85
58761;BME280;44529;47.464;19.014;2023-06-14T06:19:22;100034.81;;;15.30;88.01
58761;BME280;44529;47.464;19.014;2023-06-14T06:22:24;100038.44;;;15.34;89.58
58761;BME280;44529;47.464;19.014;2023-06-14T06:25:27;100046.87;;;15.45;87.88
58761;BME280;44529;47.464;19.014;2023-06-14T06:28:30;100054.56;;;15.55;88.61
58761;BME280;44529;47.464;19.014;2023-06-14T06:31:32;100056.03;;;15.65;86.19
58761;BME280;44529;47.464;19.014;2023-06-14T06:34:37;100048.22;;;15.79;83.95
58761;BME280;44529;47.464;19.014;2023-06-14T06:37:41;100048.81;;;15.88;86.84
58761;BME280;44529;47.464;19.014;2023-06-14T06:40:44;100045.38;;;16.07;86.86
58761;BME280;44529;47.464;19.014;2023-06-14T06:43:46;100044.41;;;16.31;84.60
58761;BME280;44529;47.464;19.014;2023-06-14T06:46:50;100049.63;;;16.56;84.51
58761;BME280;44529;47.464;19.014;2023-06-14T06:49:53;100046.22;;;16.78;81.11
58761;BME280;44529;47.464;19.014;2023-06-14T06:52:55;100050.00;;;16.89;78.84
58761;BME280;44529;47.464;19.014;2023-06-14T06:55:58;100053.66;;;16.97;78.99
58761;BME280;44529;47.464;19.014;2023-06-14T06:59:01;100054.31;;;17.10;78.43
58761;BME280;44529;47.464;19.014;2023-06-14T07:02:03;100053.66;;;17.16;75.22
58761;BME280;44529;47.464;19.014;2023-06-14T07:05:06;100056.38;;;17.36;77.49
58761;BME280;44529;47.464;19.014;2023-06-14T07:08:13;100046.81;;;17.45;76.28
58761;BME280;44529;47.464;19.014;2023-06-14T07:11:15;100050.44;;;17.53;77.11
58761;BME280;44529;47.464;19.014;2023-06-14T07:14:18;100057.25;;;17.63;74.82
58761;BME280;44529;47.464;19.014;2023-06-14T07:17:21;100054.31;;;17.71;76.56
58761;BME280;44529;47.464;19.014;2023-06-14T07:20:26;100054.19;;;17.87;74.63
58761;BME280;44529;47.464;19.014;2023-06-14T07:23:29;100055.66;;;18.04;73.20
58761;BME280;44529;47.464;19.014;2023-06-14T07:26:32;100052.19;;;18.07;72.82
58761;BME280;44529;47.464;19.014;2023-06-14T07:29:35;100048.53;;;17.99;74.72
58761;BME280;44529;47.464;19.014;2023-06-14T07:32:37;100048.56;;;18.03;73.81
58761;BME280;44529;47.464;19.014;2023-06-14T07:35:40;100049.69;;;17.98;71.32
58761;BME280;44529;47.464;19.014;2023-06-14T07:38:44;100047.69;;;17.95;72.73
58761;BME280;44529;47.464;19.014;2023-06-14T07:41:47;100055.59;;;18.00;73.24
58761;BME280;44529;47.464;19.014;2023-06-14T07:44:49;100065.44;;;18.05;73.72
58761;BME280;44529;47.464;19.014;2023-06-14T07:47:53;100061.16;;;18.07;71.17
58761;BME280;44529;47.464;19.014;2023-06-14T07:50:55;100072.22;;;18.14;73.61
58761;BME280;44529;47.464;19.014;2023-06-14T07:53:59;100073.94;;;18.23;73.24
58761;BME280;44529;47.464;19.014;2023-06-14T07:57:04;100066.34;;;18.39;72.76
58761;BME280;44529;47.464;19.014;2023-06-14T08:00:07;100066.94;;;18.52;73.27
58761;BME280;44529;47.464;19.014;2023-06-14T08:03:13;100064.03;;;18.67;72.14
58761;BME280;44529;47.464;19.014;2023-06-14T08:06:15;100076.69;;;18.76;69.61
58761;BME280;44529;47.464;19.014;2023-06-14T08:09:18;100067.78;;;18.82;68.08
58761;BME280;44529;47.464;19.014;2023-06-14T08:12:21;100073.03;;;19.28;66.95
58761;BME280;44529;47.464;19.014;2023-06-14T08:15:23;100067.41;;;19.88;65.34
58761;BME280;44529;47.464;19.014;2023-06-14T08:18:26;100069.91;;;20.04;64.19
58761;BME280;44529;47.464;19.014;2023-06-14T08:21:28;100068.59;;;19.87;65.98
58761;BME280;44529;47.464;19.014;2023-06-14T08:24:31;100065.91;;;19.57;67.32
58761;BME280;44529;47.464;19.014;2023-06-14T08:27:35;100071.31;;;19.50;67.76
58761;BME280;44529;47.464;19.014;2023-06-14T08:30:38;100072.75;;;19.37;68.24
58761;BME280;44529;47.464;19.014;2023-06-14T08:33:40;100067.50;;;19.21;68.69
58761;BME280;44529;47.464;19.014;2023-06-14T08:36:45;100074.53;;;19.22;68.90
58761;BME280;44529;47.464;19.014;2023-06-14T08:39:48;100082.75;;;19.22;68.38
58761;BME280;44529;47.464;19.014;2023-06-14T08:42:52;100081.84;;;19.44;67.54
58761;BME280;44529;47.464;19.014;2023-06-14T08:45:58;100091.66;;;19.45;68.05
58761;BME280;44529;47.464;19.014;2023-06-14T08:49:03;100097.97;;;19.49;67.41
58761;BME280;44529;47.464;19.014;2023-06-14T08:52:08;100089.00;;;19.53;66.98
58761;BME280;44529;47.464;19.014;2023-06-14T08:55:13;100100.31;;;19.51;70.19
58761;BME280;44529;47.464;19.014;2023-06-14T08:58:17;100100.22;;;19.40;68.50
58761;BME280;44529;47.464;19.014;2023-06-14T09:01:20;100109.62;;;19.39;68.40
58761;BME280;44529;47.464;19.014;2023-06-14T09:04:23;100120.59;;;19.43;63.84
58761;BME280;44529;47.464;19.014;2023-06-14T09:07:31;100114.09;;;19.55;63.09
58761;BME280;44529;47.464;19.014;2023-06-14T09:10:35;100113.53;;;19.75;64.18
58761;BME280;44529;47.464;19.014;2023-06-14T09:13:41;100119.16;;;19.90;65.85
58761;BME280;44529;47.464;19.014;2023-06-14T09:16:43;100117.75;;;20.03;66.11
58761;BME280;44529;47.464;19.014;2023-06-14T09:19:46;100110.03;;;20.19;64.58
58761;BME280;44529;47.464;19.014;2023-06-14T09:22:48;100113.19;;;20.21;64.00
58761;BME280;44529;47.464;19.014;2023-06-14T09:25:51;100114.00;;;20.25;62.48
58761;BME280;44529;47.464;19.014;2023-06-14T09:28:53;100115.94;;;20.21;63.64
58761;BME280;44529;47.464;19.014;2023-06-14T09:31:58;100111.78;;;19.94;63.73
58761;BME280;44529;47.464;19.014;2023-06-14T09:35:00;100109.78;;;19.91;64.27
58761;BME280;44529;47.464;19.014;2023-06-14T09:38:03;100112.03;;;19.82;62.63
58761;BME280;44529;47.464;19.014;2023-06-14T09:41:05;100097.97;;;19.87;62.80
58761;BME280;44529;47.464;19.014;2023-06-14T09:44:09;100100.09;;;20.04;60.50
58761;BME280;44529;47.464;19.014;2023-06-14T09:47:21;100099.47;;;20.80;59.68
58761;BME280;44529;47.464;19.014;2023-06-14T09:50:24;100090.84;;;21.65;57.61
58761;BME280;44529;47.464;19.014;2023-06-14T09:53:29;100088.91;;;22.48;54.28
58761;BME280;44529;47.464;19.014;2023-06-14T09:56:35;100084.56;;;22.47;54.39
58761;BME280;44529;47.464;19.014;2023-06-14T09:59:46;100085.34;;;22.58;55.01
58761;BME280;44529;47.464;19.014;2023-06-14T10:02:54;100086.16;;;21.90;55.32
58761;BME280;44529;47.464;19.014;2023-06-14T10:06:02;100084.97;;;22.27;52.78
58761;BME280;44529;47.464;19.014;2023-06-14T10:09:09;100089.66;;;22.59;56.65
58761;BME280;44529;47.464;19.014;2023-06-14T10:12:12;100084.06;;;23.02;51.84
58761;BME280;44529;47.464;19.014;2023-06-14T10:15:27;100093.12;;;22.98;52.66
58761;BME280;44529;47.464;19.014;2023-06-14T10:22:18;100078.31;;;23.51;50.45
58761;BME280;44529;47.464;19.014;2023-06-14T10:25:31;100078.03;;;23.98;47.04
58761;BME280;44529;47.464;19.014;2023-06-14T10:28:39;100080.19;;;24.21;46.70
58761;BME280;44529;47.464;19.014;2023-06-14T10:31:49;100065.38;;;24.00;48.35
58761;BME280;44529;47.464;19.014;2023-06-14T10:34:57;100072.25;;;24.26;48.60
58761;BME280;44529;47.464;19.014;2023-06-14T10:38:11;100066.22;;;24.42;45.39
58761;BME280;44529;47.464;19.014;2023-06-14T10:41:13;100061.69;;;24.63;44.67
58761;BME280;44529;47.464;19.014;2023-06-14T10:50:28;100071.03;;;24.72;44.08
58761;BME280;44529;47.464;19.014;2023-06-14T10:53:40;100060.03;;;24.69;43.15
58761;BME280;44529;47.464;19.014;2023-06-14T10:59:48;100062.12;;;24.13;39.64
58761;BME280;44529;47.464;19.014;2023-06-14T11:06:17;100051.91;;;24.10;40.85
58761;BME280;44529;47.464;19.014;2023-06-14T11:09:51;100046.81;;;24.46;39.90
58761;BME280;44529;47.464;19.014;2023-06-14T11:12:56;100041.94;;;24.19;40.41
58761;BME280;44529;47.464;19.014;2023-06-14T11:15:59;100039.06;;;24.30;39.77
58761;BME280;44529;47.464;19.014;2023-06-14T11:19:02;100038.25;;;24.33;39.64
58761;BME280;44529;47.464;19.014;2023-06-14T11:22:08;100032.03;;;24.63;41.60
58761;BME280;44529;47.464;19.014;2023-06-14T11:25:11;100037.41;;;24.77;41.64
58761;BME280;44529;47.464;19.014;2023-06-14T11:28:14;100038.78;;;24.58;40.30
58761;BME280;44529;47.464;19.014;2023-06-14T11:31:20;100028.84;;;24.65;38.31
58761;BME280;44529;47.464;19.014;2023-06-14T11:34:22;100029.97;;;24.71;39.27
58761;BME280;44529;47.464;19.014;2023-06-14T11:37:28;100041.78;;;24.37;39.78
58761;BME280;44529;47.464;19.014;2023-06-14T11:40:33;100033.91;;;24.32;40.56
58761;BME280;44529;47.464;19.014;2023-06-14T11:43:35;100027.66;;;23.83;42.00
58761;BME280;44529;47.464;19.014;2023-06-14T11:46:38;100030.97;;;23.64;40.34
58761;BME280;44529;47.464;19.014;2023-06-14T11:49:41;100033.44;;;23.40;40.76
58761;BME280;44529;47.464;19.014;2023-06-14T11:52:43;100026.50;;;23.14;42.59
58761;BME280;44529;47.464;19.014;2023-06-14T11:55:46;100024.44;;;23.33;43.64
58761;BME280;44529;47.464;19.014;2023-06-14T11:58:49;100024.56;;;23.74;41.19
58761;BME280;44529;47.464;19.014;2023-06-14T12:01:55;100036.31;;;23.85;39.95
58761;BME280;44529;47.464;19.014;2023-06-14T12:05:04;100031.84;;;23.43;42.50
58761;BME280;44529;47.464;19.014;2023-06-14T12:08:11;100041.50;;;23.03;40.68
58761;BME280;44529;47.464;19.014;2023-06-14T12:11:19;100037.97;;;22.98;41.27
58761;BME280;44529;47.464;19.014;2023-06-14T12:14:28;100032.75;;;23.26;41.49
58761;BME280;44529;47.464;19.014;2023-06-14T12:17:35;100024.09;;;23.20;38.72
58761;BME280;44529;47.464;19.014;2023-06-14T12:20:39;100034.72;;;23.25;40.04
58761;BME280;44529;47.464;19.014;2023-06-14T12:23:48;100029.25;;;23.14;42.73
58761;BME280;44529;47.464;19.014;2023-06-14T12:26:51;100028.53;;;23.00;40.56
58761;BME280;44529;47.464;19.014;2023-06-14T12:30:01;100035.28;;;22.88;42.73
58761;BME280;44529;47.464;19.014;2023-06-14T12:33:05;100035.22;;;22.98;42.17
58761;BME280;44529;47.464;19.014;2023-06-14T12:36:09;100033.53;;;23.26;41.03
58761;BME280;44529;47.464;19.014;2023-06-14T12:39:12;100040.75;;;23.72;41.32
58761;BME280;44529;47.464;19.014;2023-06-14T12:42:15;100034.28;;;23.89;41.64
58761;BME280;44529;47.464;19.014;2023-06-14T12:45:17;100032.78;;;23.85;41.35
58761;BME280;44529;47.464;19.014;2023-06-14T12:48:21;100033.19;;;23.80;42.60
58761;BME280;44529;47.464;19.014;2023-06-14T12:51:23;100042.44;;;23.51;42.54
58761;BME280;44529;47.464;19.014;2023-06-14T12:54:27;100040.84;;;23.54;42.40
58761;BME280;44529;47.464;19.014;2023-06-14T12:57:41;100036.56;;;23.46;42.70
58761;BME280;44529;47.464;19.014;2023-06-14T13:00:44;100035.09;;;23.27;41.38
58761;BME280;44529;47.464;19.014;2023-06-14T13:03:47;100030.44;;;23.13;41.77
58761;BME280;44529;47.464;19.014;2023-06-14T13:06:50;100028.88;;;23.09;43.57
58761;BME280;44529;47.464;19.014;2023-06-14T13:09:52;100025.78;;;22.85;44.21
58761;BME280;44529;47.464;19.014;2023-06-14T13:12:55;100027.06;;;22.59;44.71
58761;BME280;44529;47.464;19.014;2023-06-14T13:16:00;100023.13;;;22.53;45.75
58761;BME280;44529;47.464;19.014;2023-06-14T13:19:02;100026.31;;;22.44;46.69
58761;BME280;44529;47.464;19.014;2023-06-14T13:22:05;100034.59;;;22.41;46.54
58761;BME280;44529;47.464;19.014;2023-06-14T13:25:09;100036.97;;;22.28;46.82
58761;BME280;44529;47.464;19.014;2023-06-14T13:28:11;100031.47;;;22.28;45.93
58761;BME280;44529;47.464;19.014;2023-06-14T13:31:14;100033.84;;;22.30;47.89
58761;BME280;44529;47.464;19.014;2023-06-14T13:34:16;100043.25;;;22.39;48.12
58761;BME280;44529;47.464;19.014;2023-06-14T13:37:19;100032.22;;;22.47;47.20
58761;BME280;44529;47.464;19.014;2023-06-14T13:40:21;100035.75;;;22.58;47.82
58761;BME280;44529;47.464;19.014;2023-06-14T13:43:23;100023.56;;;22.55;48.04
58761;BME280;44529;47.464;19.014;2023-06-14T13:46:26;100033.00;;;22.54;48.12
58761;BME280;44529;47.464;19.014;2023-06-14T13:49:28;100023.53;;;22.62;48.40
58761;BME280;44529;47.464;19.014;2023-06-14T13:52:33;100021.53;;;22.70;46.44
58761;BME280;44529;47.464;19.014;2023-06-14T13:55:37;100020.34;;;22.75;46.07
58761;BME280;44529;47.464;19.014;2023-06-14T13:58:39;100019.53;;;22.78;46.24
58761;BME280;44529;47.464;19.014;2023-06-14T14:01:42;100022.34;;;22.67;48.45
58761;BME280;44529;47.464;19.014;2023-06-14T14:04:45;100020.37;;;22.64;45.84
58761;BME280;44529;47.464;19.014;2023-06-14T14:07:53;100022.34;;;22.63;45.77
58761;BME280;44529;47.464;19.014;2023-06-14T14:10:55;100020.81;;;22.48;45.78
58761;BME280;44529;47.464;19.014;2023-06-14T14:13:58;100023.56;;;22.44;47.42
58761;BME280;44529;47.464;19.014;2023-06-14T14:17:00;100022.41;;;22.42;46.43
58761;BME280;44529;47.464;19.014;2023-06-14T14:20:03;100017.28;;;22.44;46.42
58761;BME280;44529;47.464;19.014;2023-06-14T14:23:05;100011.38;;;22.28;47.24
58761;BME280;44529;47.464;19.014;2023-06-14T14:26:08;100017.31;;;22.23;48.10
58761;BME280;44529;47.464;19.014;2023-06-14T14:29:10;100020.44;;;22.28;47.22
58761;BME280;44529;47.464;19.014;2023-06-14T14:32:13;100020.84;;;22.30;46.31
58761;BME280;44529;47.464;19.014;2023-06-14T14:35:17;100020.03;;;22.33;46.48
58761;BME280;44529;47.464;19.014;2023-06-14T14:38:19;100033.06;;;22.19;46.80
58761;BME280;44529;47.464;19.014;2023-06-14T14:41:23;100017.28;;;22.08;46.41
58761;BME280;44529;47.464;19.014;2023-06-14T14:44:44;100018.88;;;22.06;45.79
58761;BME280;44529;47.464;19.014;2023-06-14T14:47:47;100025.19;;;22.03;45.43
58761;BME280;44529;47.464;19.014;2023-06-14T14:50:49;100016.53;;;21.94;46.30
58761;BME280;44529;47.464;19.014;2023-06-14T14:53:52;100016.13;;;21.99;46.39
58761;BME280;44529;47.464;19.014;2023-06-14T14:56:57;100028.31;;;22.05;46.98
58761;BME280;44529;47.464;19.014;2023-06-14T14:59:59;100019.28;;;22.11;46.61
58761;BME280;44529;47.464;19.014;2023-06-14T15:03:01;100019.25;;;22.08;47.01
58761;BME280;44529;47.464;19.014;2023-06-14T15:06:04;100024.38;;;22.02;47.74
58761;BME280;44529;47.464;19.014;2023-06-14T15:09:07;100016.91;;;21.99;47.11
58761;BME280;44529;47.464;19.014;2023-06-14T15:12:10;100021.22;;;21.89;47.12
58761;BME280;44529;47.464;19.014;2023-06-14T15:15:13;100015.72;;;21.89;46.81
58761;BME280;44529;47.464;19.014;2023-06-14T15:18:15;100010.63;;;21.92;46.65
58761;BME280;44529;47.464;19.014;2023-06-14T15:21:19;100016.50;;;21.83;47.26
58761;BME280;44529;47.464;19.014;2023-06-14T15:24:21;100016.13;;;21.67;46.71
58761;BME280;44529;47.464;19.014;2023-06-14T15:27:42;100008.66;;;21.60;48.03
58761;BME280;44529;47.464;19.014;2023-06-14T15:30:45;100014.53;;;21.62;46.61
58761;BME280;44529;47.464;19.014;2023-06-14T15:33:47;100014.13;;;21.63;47.02
58761;BME280;44529;47.464;19.014;2023-06-14T15:36:49;100011.00;;;21.69;46.36
58761;BME280;44529;47.464;19.014;2023-06-14T15:39:52;100001.97;;;21.54;46.55
58761;BME280;44529;47.464;19.014;2023-06-14T15:42:54;99997.62;;;21.56;46.67
58761;BME280;44529;47.464;19.014;2023-06-14T15:45:56;99996.06;;;21.48;46.88
58761;BME280;44529;47.464;19.014;2023-06-14T15:48:59;99997.62;;;21.42;46.52
58761;BME280;44529;47.464;19.014;2023-06-14T15:52:01;100000.78;;;21.41;46.44
58761;BME280;44529;47.464;19.014;2023-06-14T15:55:04;100002.72;;;21.36;45.08
58761;BME280;44529;47.464;19.014;2023-06-14T15:58:07;99995.66;;;21.39;45.09
58761;BME280;44529;47.464;19.014;2023-06-14T16:01:10;99996.84;;;21.42;45.82
58761;BME280;44529;47.464;19.014;2023-06-14T16:04:12;100006.66;;;21.43;43.89
58761;BME280;44529;47.464;19.014;2023-06-14T16:07:14;99996.06;;;21.45;43.96
58761;BME280;44529;47.464;19.014;2023-06-14T16:10:17;100003.91;;;21.39;44.03
58761;BME280;44529;47.464;19.014;2023-06-14T16:13:20;100009.41;;;21.35;45.25
58761;BME280;44529;47.464;19.014;2023-06-14T16:16:23;100012.53;;;21.30;45.22